Форум клана ЧПУшников

Информация о пользователе

Привет, Гость! Войдите или зарегистрируйтесь.


Вы здесь » Форум клана ЧПУшников » Технологии, ремесла


Технологии, ремесла

Тем 81 страница 160 из 220

Тема Ответов Просмотров Последнее сообщение
68 10031 24-06-2016 23:29:04  adres
10 488 23-06-2016 10:50:17  chirik
8 1715 04-06-2016 16:04:55  Ostlavius
22 3146 30-05-2016 15:05:08  radinetz
1 273 30-05-2016 13:42:04  creatlab
14 1989 16-05-2016 18:38:18  adres
58 3935 16-05-2016 13:13:41  ennio
14 888 10-05-2016 08:52:57  adres
70 11251 10-05-2016 08:37:52  adres
11 552 22-04-2016 19:22:15  serzh147
23 1040 25-03-2016 20:43:45  Flight420
35 1839 13-03-2016 18:56:10  Расулыч
93 Интарсия  agronom_26
4 327 25-02-2016 21:52:16  DeKot
4 362 22-02-2016 20:06:09  Kinetic
26 2874 17-02-2016 16:13:21  sergey00166
40 2070 17-02-2016 15:47:31  Олег Непричом
11 666 17-02-2016 09:10:43  Brastin
3 300 14-02-2016 11:39:10  volk 75
4 1005 13-02-2016 08:39:21  valik
8 614 12-02-2016 12:26:10  adres
101 нужен совет по изготовлению  Владимир Пигалов
6 470 02-02-2016 16:48:31  Свирель
7 469 02-02-2016 16:45:04  Flint2015
26 2204 31-01-2016 19:04:48  valik
5 702 18-01-2016 19:53:20  Blade
4 289 17-01-2016 21:22:55  komil
10 752 17-01-2016 14:35:06  StarPOM
4 444 06-01-2016 21:40:25  Pitak
108 Ложка на ЧПУ.  region 42
31 4072 04-01-2016 11:42:29  adilet
2 311 27-12-2015 23:09:13  Phoenixzp
16 862 19-12-2015 13:31:46  racon75
6 1959 10-12-2015 12:27:07  krom
16 820 04-12-2015 21:09:34  puh
9 300 30-11-2015 19:52:42  appo
1 241 30-11-2015 15:07:00  Flint2015
12 528 25-11-2015 13:06:17  blex
116 Подсветка  Звенигора
19 1250 24-11-2015 16:56:40  davlad
117 Изготовление штампа  Мастер на все руки
2 285 24-11-2015 07:39:29  23594
8 1270 23-11-2015 20:38:37  appo
26 6197 23-11-2015 17:11:03  SlyTIGER
13 797 24-10-2015 20:08:04  SnuS
28 7131 21-10-2015 11:26:58  Dji
35 2573 20-10-2015 18:42:51  DeKot
39 2073 20-10-2015 08:52:11  Brovey
36 2980 15-10-2015 01:51:20  Vlad39
5 370 14-10-2015 20:13:37  су-24
26 3125 24-09-2015 09:19:25  blex
2 205 20-07-2015 22:44:01  akvariys
34 737 13-07-2015 01:35:51  musicman3
53 5700 05-07-2015 00:03:04  tomias
130 Закрыта Ворсистость  Sergey1995
3 326 16-06-2015 11:23:45  kang2k
69 16849 13-06-2015 10:16:53  tooshka
10 901 13-06-2015 10:05:20  tooshka
186 15886 13-06-2015 08:51:31  pero82
8 653 05-06-2015 18:28:36  appo
8 1905 04-06-2015 15:23:47  MX #82
30 1445 28-05-2015 07:06:23  Роман-57
10 1687 25-05-2015 07:18:08  Роман-57
8 726 21-04-2015 23:05:13  mrak
237 33472 03-04-2015 20:22:29  Вивальди
5 406 30-03-2015 01:17:40  Фом
141 гнутьё паром  filichka999
21 1636 28-03-2015 02:56:34  CNCshnick
15 3873 23-03-2015 17:21:24  rumial
2 362 19-03-2015 11:53:07  Vasilij
23 1230 19-03-2015 11:25:14  Vasilij
32 7531 11-02-2015 16:00:27  Bagration
5 821 11-02-2015 15:44:35  Bagration
3 458 07-02-2015 00:33:55  Администратор
64 4669 21-01-2015 22:45:31  Dok
10 4025 12-01-2015 12:48:59  AleksDZ
5 830 09-01-2015 01:52:29  ximik
37 3600 02-01-2015 14:15:59  filichka999
19 920 25-12-2014 17:16:29  silvermilenium
31 1607 06-12-2014 17:20:56  denziko
154 Филёнчатый фасад  Артемий
7 727 29-11-2014 17:05:17  Артемий
155 Филёнчатый фасад  Артемий
4 345 27-11-2014 19:08:54  Артемий
18 5053 27-11-2014 14:56:41  Uri71
3 191 24-11-2014 19:31:47  Parker
15 2210 21-11-2014 16:02:18  Parker
159 Иконостас  Дімич
14 4084 17-11-2014 23:10:46  Pelikan
18 2295 11-11-2014 13:07:27  gragon64

Вы здесь » Форум клана ЧПУшников » Технологии, ремесла